sim
Sign-in with your pilot id or email,
or register
Callsign
Passwort

Schedule Details

Flight Number: OEO7716
Departure: Vienna International Airport (LOWW) at 18:40
Arrival: Mumbai Chhatrapati Shivaji International Airport (VABB) at 02:10

Weather Information
Getting current METAR information for LOWW 092350Z 18006KT 6000 FEW050 BKN080 03/02 Q1010 BECMG 27007KT
Getting current METAR information for VABB 092330Z 09006KT 2500 HZ NSC 26/20 Q1012 NOSIG

Schedule Frequency

Route Map